Time;durP1;ratioP1;P1;durP2;ratioP2;P2;SDS_P1;SDS_P2;PMS_P1;PMS_P2;Temp;Humidity;BMP_temperature;BMP_pressure;BME280_temperature;BME280_humidity;BME280_pressure;Samples;Min_cycle;Max_cycle;Signal;HPM_P1;HPM_P2
2023/05/08 00:00:15;;;;;;;1.70;1.60;;;;;;;-143.99;100.00;64180.81;6114185;28;20579;-72
2023/05/08 00:03:35;;;;;;;1.90;1.77;;;;;;;-143.99;100.00;64180.81;6136746;28;20235;-72
2023/05/08 00:06:56;;;;;;;2.27;2.10;;;;;;;-143.99;100.00;64180.81;6114184;28;20235;-72
2023/05/08 00:10:18;;;;;;;3.53;1.67;;;;;;;-143.99;100.00;64180.81;6111842;28;20238;-72
2023/05/08 00:13:40;;;;;;;2.10;2.00;;;;;;;-143.99;100.00;64180.81;6135308;28;20812;-72
2023/05/08 00:17:02;;;;;;;2.87;2.10;;;;;;;-143.99;100.00;64180.81;6128010;28;20234;-72
2023/05/08 00:20:23;;;;;;;1.57;1.47;;;;;;;-143.99;100.00;64180.81;6108760;28;20235;-72
2023/05/08 00:23:44;;;;;;;1.90;1.80;;;;;;;-143.99;100.00;64180.81;6136788;28;20326;-73
2023/05/08 00:27:07;;;;;;;6.10;2.00;;;;;;;-143.99;100.00;64180.81;6130325;28;20231;-72
2023/05/08 00:30:31;;;;;;;2.40;1.80;;;;;;;-143.99;100.00;64180.81;6120883;28;20612;-73
2023/05/08 00:33:53;;;;;;;2.13;1.47;;;;;;;-143.99;100.00;64180.81;6135866;28;20306;-72
2023/05/08 00:37:14;;;;;;;2.50;2.20;;;;;;;-143.99;100.00;64180.81;6127671;28;20234;-72
2023/05/08 00:40:35;;;;;;;2.43;2.23;;;;;;;-143.99;100.00;64180.81;6117462;28;20616;-72
2023/05/08 00:43:57;;;;;;;2.37;2.27;;;;;;;-143.99;100.00;64180.81;6124234;28;20584;-72
2023/05/08 00:47:20;;;;;;;1.83;1.73;;;;;;;-143.99;100.00;64180.81;6118064;28;20275;-72
2023/05/08 00:50:41;;;;;;;1.50;1.50;;;;;;;-143.99;100.00;64180.81;6130003;28;20308;-72
2023/05/08 00:54:03;;;;;;;2.33;2.17;;;;;;;-143.99;100.00;64180.81;6123232;28;20243;-71
2023/05/08 00:57:25;;;;;;;2.30;2.17;;;;;;;-143.99;100.00;64180.81;6124144;28;20541;-71
2023/05/08 01:00:48;;;;;;;2.07;1.97;;;;;;;-143.99;100.00;64180.81;6115102;28;20554;-72
2023/05/08 01:04:09;;;;;;;1.60;1.50;;;;;;;-143.99;100.00;64180.81;6125392;28;20318;-71
2023/05/08 01:07:30;;;;;;;2.93;2.63;;;;;;;-143.99;100.00;64180.81;6127791;28;20276;-72
2023/05/08 01:11:11;;;;;;;1.80;1.70;;;;;;;-143.99;100.00;64180.81;6118414;28;20230;-71
2023/05/08 01:14:42;;;;;;;1.77;1.67;;;;;;;-143.99;100.00;64180.81;6124865;28;20695;-72
2023/05/08 01:18:13;;;;;;;2.03;1.93;;;;;;;-143.99;100.00;64180.81;6107525;28;20775;-71
2023/05/08 01:21:42;;;;;;;1.87;1.70;;;;;;;-143.99;100.00;64180.81;6120395;28;20318;-72
2023/05/08 01:25:40;;;;;;;2.03;1.80;;;;;;;-143.99;100.00;64180.81;6135690;28;20231;-72
2023/05/08 01:29:29;;;;;;;1.83;1.50;;;;;;;-143.99;100.00;64180.81;6114163;28;20238;-72
2023/05/08 01:32:56;;;;;;;4.37;2.17;;;;;;;-143.99;100.00;64180.81;6110107;28;20556;-71
2023/05/08 01:36:23;;;;;;;1.47;1.37;;;;;;;-143.99;100.00;64180.81;6110731;28;20593;-72
2023/05/08 01:39:50;;;;;;;5.00;1.87;;;;;;;-143.99;100.00;64180.81;6128395;28;20239;-73
2023/05/08 01:43:20;;;;;;;2.20;2.10;;;;;;;-143.99;100.00;64180.81;6118479;28;20231;-72
2023/05/08 01:46:43;;;;;;;2.23;2.13;;;;;;;-143.99;100.00;64180.81;6122604;28;20646;-71
2023/05/08 01:50:11;;;;;;;1.87;1.77;;;;;;;-143.99;100.00;64180.81;6126492;28;20235;-72
2023/05/08 01:53:38;;;;;;;1.80;1.70;;;;;;;-143.99;100.00;64180.81;6126287;28;20271;-72
2023/05/08 01:57:03;;;;;;;3.27;2.00;;;;;;;-143.99;100.00;64180.81;6111058;28;20232;-73
2023/05/08 02:00:26;;;;;;;2.83;2.20;;;;;;;-143.99;100.00;64180.81;6129140;28;20236;-72
2023/05/08 02:03:48;;;;;;;2.37;2.03;;;;;;;-143.99;100.00;64180.81;6138520;28;20235;-73
2023/05/08 02:07:10;;;;;;;1.80;1.70;;;;;;;-143.99;100.00;64180.81;6128321;28;20606;-72
2023/05/08 02:10:32;;;;;;;1.20;1.10;;;;;;;-143.99;100.00;64180.81;6117158;28;20263;-73
2023/05/08 02:13:55;;;;;;;2.37;1.93;;;;;;;-143.99;100.00;64180.81;6131078;28;20231;-72
2023/05/08 02:17:17;;;;;;;2.33;2.13;;;;;;;-143.99;100.00;64180.81;6119397;28;20723;-72
2023/05/08 02:20:40;;;;;;;1.70;1.60;;;;;;;-143.99;100.00;64180.81;6121353;28;20226;-73
2023/05/08 02:24:04;;;;;;;1.73;1.63;;;;;;;-143.99;100.00;64180.81;6129142;28;20239;-72
2023/05/08 02:27:27;;;;;;;1.83;1.73;;;;;;;-143.99;100.00;64180.81;6119276;28;21204;-72
2023/05/08 02:30:50;;;;;;;2.20;2.00;;;;;;;-143.99;100.00;64180.81;6123195;28;20416;-72
2023/05/08 02:34:12;;;;;;;1.70;1.60;;;;;;;-143.99;100.00;64180.81;6121687;28;20239;-72
2023/05/08 02:37:34;;;;;;;2.80;1.73;;;;;;;-143.99;100.00;64180.81;6126033;28;20358;-74
2023/05/08 02:41:00;;;;;;;1.80;1.70;;;;;;;-143.99;100.00;64180.81;6114671;28;20234;-72
2023/05/08 02:44:21;;;;;;;4.37;2.10;;;;;;;-143.99;100.00;64180.81;6139662;28;20346;-72
2023/05/08 02:47:47;;;;;;;1.60;1.50;;;;;;;-143.99;100.00;64180.81;6117920;28;20235;-73
2023/05/08 02:51:18;;;;;;;1.97;1.87;;;;;;;-143.99;100.00;64180.81;6116460;28;20242;-72
2023/05/08 02:54:43;;;;;;;2.40;1.97;;;;;;;-143.99;100.00;64180.81;6124706;28;20231;-72
2023/05/08 02:58:14;;;;;;;2.30;2.20;;;;;;;-143.99;100.00;64180.81;6115292;28;20767;-72
2023/05/08 03:01:44;;;;;;;2.20;2.00;;;;;;;-143.99;100.00;64180.81;6111765;28;20235;-73
2023/05/08 03:05:13;;;;;;;1.93;1.83;;;;;;;-143.99;100.00;64180.81;6121836;28;20247;-73
2023/05/08 03:08:35;;;;;;;3.17;2.33;;;;;;;-143.99;100.00;64180.81;6141398;28;20234;-73
2023/05/08 03:12:07;;;;;;;2.03;1.60;;;;;;;-143.99;100.00;64180.81;6124838;28;20266;-72
2023/05/08 03:15:35;;;;;;;2.83;2.37;;;;;;;-143.99;100.00;64180.81;6123439;28;20231;-72
2023/05/08 03:18:59;;;;;;;2.73;2.53;;;;;;;-143.99;100.00;64180.81;6115867;28;20254;-71
2023/05/08 03:22:22;;;;;;;1.80;1.70;;;;;;;-143.99;100.00;64180.81;6117040;28;20243;-71
2023/05/08 03:25:45;;;;;;;2.53;2.20;;;;;;;-143.99;100.00;64180.81;6128863;28;20235;-72
2023/05/08 03:29:08;;;;;;;2.87;2.57;;;;;;;-143.99;100.00;64180.81;6115552;28;20597;-73
2023/05/08 03:32:32;;;;;;;3.07;2.23;;;;;;;-143.99;100.00;64180.81;6127453;28;20315;-71
2023/05/08 03:35:54;;;;;;;3.43;3.13;;;;;;;-143.99;100.00;64180.81;6118534;28;20231;-72
2023/05/08 03:39:16;;;;;;;3.73;3.00;;;;;;;-143.99;100.00;64180.81;6131824;28;20231;-72
2023/05/08 03:42:38;;;;;;;1.80;1.70;;;;;;;-143.99;100.00;64180.81;6116031;28;20227;-72
2023/05/08 03:46:00;;;;;;;2.97;2.77;;;;;;;-143.99;100.00;64180.81;6112457;28;20258;-73
2023/05/08 03:49:24;;;;;;;2.70;2.10;;;;;;;-143.99;100.00;64180.81;6125503;28;20304;-71
2023/05/08 03:52:46;;;;;;;2.50;2.30;;;;;;;-143.99;100.00;64180.81;6098400;28;20235;-72
2023/05/08 03:56:07;;;;;;;5.93;5.33;;;;;;;-143.99;100.00;64180.81;6128502;28;20254;-73
2023/05/08 03:59:38;;;;;;;1.90;1.80;;;;;;;-143.99;100.00;64180.81;6125005;28;20238;-72
2023/05/08 04:03:10;;;;;;;2.13;2.03;;;;;;;-143.99;100.00;64180.81;6125250;28;20231;-73
2023/05/08 04:06:39;;;;;;;2.00;1.83;;;;;;;-143.99;100.00;64180.81;6128060;28;20238;-72
2023/05/08 04:10:09;;;;;;;2.03;1.93;;;;;;;-143.99;100.00;64180.81;6130581;28;20688;-72
2023/05/08 04:13:36;;;;;;;2.50;2.20;;;;;;;-143.99;100.00;64180.81;6126391;28;20239;-73
2023/05/08 04:17:03;;;;;;;3.37;3.00;;;;;;;-143.99;100.00;64180.81;6117541;28;20517;-72
2023/05/08 04:20:27;;;;;;;2.20;2.10;;;;;;;-143.99;100.00;64180.81;6121122;28;20374;-73
2023/05/08 04:23:51;;;;;;;2.50;2.40;;;;;;;-143.99;100.00;64180.81;6128741;28;20243;-72
2023/05/08 04:27:13;;;;;;;4.73;2.73;;;;;;;-143.99;100.00;64180.81;6125866;28;20234;-72
2023/05/08 04:30:35;;;;;;;2.07;1.87;;;;;;;-143.99;100.00;64180.81;6129240;28;21264;-72
2023/05/08 04:33:56;;;;;;;2.80;2.60;;;;;;;-143.99;100.00;64180.81;6128192;28;20231;-71
2023/05/08 04:37:25;;;;;;;3.43;2.57;;;;;;;-143.99;100.00;64180.81;6124102;28;20247;-72
2023/05/08 04:40:48;;;;;;;4.50;3.23;;;;;;;-143.99;100.00;64180.81;6121754;28;20234;-72
2023/05/08 04:44:10;;;;;;;1.93;1.83;;;;;;;-143.99;100.00;64180.81;6122740;28;20242;-72
2023/05/08 04:47:31;;;;;;;2.43;2.23;;;;;;;-143.99;100.00;64180.81;6120589;28;20258;-72
2023/05/08 04:50:52;;;;;;;2.53;2.03;;;;;;;-143.99;100.00;64180.81;6110165;28;20469;-71
2023/05/08 04:54:13;;;;;;;2.00;1.90;;;;;;;-143.99;100.00;64180.81;6128790;28;20238;-72
2023/05/08 04:57:36;;;;;;;3.03;2.13;;;;;;;-143.99;100.00;64180.81;6118475;28;20243;-72
2023/05/08 05:00:57;;;;;;;2.53;2.03;;;;;;;-143.99;100.00;64180.81;6103505;28;20234;-72
2023/05/08 05:04:18;;;;;;;2.57;2.37;;;;;;;-143.99;100.00;64180.81;6133067;28;20591;-72
2023/05/08 05:07:39;;;;;;;3.97;2.77;;;;;;;-143.99;100.00;64180.81;6131920;28;20608;-73
2023/05/08 05:11:00;;;;;;;3.17;2.77;;;;;;;-143.99;100.00;64180.81;6120579;28;20226;-72
2023/05/08 05:14:24;;;;;;;4.23;3.83;;;;;;;-143.99;100.00;64180.81;6111275;28;20327;-72
2023/05/08 05:17:45;;;;;;;2.93;2.73;;;;;;;-143.99;100.00;64180.81;6127800;28;20223;-72
2023/05/08 05:21:06;;;;;;;2.73;2.53;;;;;;;-143.99;100.00;64180.81;6123553;28;20267;-73
2023/05/08 05:24:27;;;;;;;3.07;2.87;;;;;;;-143.99;100.00;64180.81;6128803;28;20508;-69
2023/05/08 05:27:48;;;;;;;2.47;2.27;;;;;;;-143.99;100.00;64180.81;6120853;28;20243;-69
2023/05/08 05:31:10;;;;;;;2.43;2.23;;;;;;;-143.99;100.00;64180.81;6113012;28;20322;-70
2023/05/08 05:34:32;;;;;;;2.70;2.50;;;;;;;-143.99;100.00;64180.81;6106028;28;20247;-71
2023/05/08 05:37:53;;;;;;;3.23;2.93;;;;;;;-143.99;100.00;64180.81;6099770;28;20238;-71
2023/05/08 05:41:14;;;;;;;3.80;2.47;;;;;;;-143.99;100.00;64180.81;6098616;28;20261;-70
2023/05/08 05:44:35;;;;;;;3.30;3.00;;;;;;;-143.99;100.00;64180.81;6118903;28;21652;-70
2023/05/08 05:47:57;;;;;;;3.53;3.13;;;;;;;-143.99;100.00;64180.81;6112334;28;20314;-72
2023/05/08 05:51:21;;;;;;;2.03;1.93;;;;;;;-143.99;100.00;64180.81;6118339;28;20254;-68
2023/05/08 05:54:42;;;;;;;2.37;2.17;;;;;;;-143.99;100.00;64180.81;6134246;28;20266;-69
2023/05/08 05:58:03;;;;;;;4.83;3.43;;;;;;;-143.99;100.00;64180.81;6128436;28;20231;-70
2023/05/08 06:01:24;;;;;;;3.50;3.10;;;;;;;-143.99;100.00;64180.81;6116870;28;20314;-70
2023/05/08 06:04:48;;;;;;;2.87;2.53;;;;;;;-143.99;100.00;64180.81;6123608;28;20281;-69
2023/05/08 06:08:10;;;;;;;3.37;3.17;;;;;;;-143.99;100.00;64180.81;6087278;28;22044;-69
2023/05/08 06:11:30;;;;;;;2.53;2.33;;;;;;;-143.99;100.00;64180.81;6109777;28;20246;-70
2023/05/08 06:14:51;;;;;;;3.53;3.23;;;;;;;-143.99;100.00;64180.81;6106858;28;20247;-70
2023/05/08 06:18:13;;;;;;;2.70;2.50;;;;;;;-143.99;100.00;64180.81;6094199;28;20227;-71
2023/05/08 06:21:35;;;;;;;3.50;3.20;;;;;;;-143.99;100.00;64180.81;6097707;28;20261;-72
2023/05/08 06:24:56;;;;;;;3.40;3.13;;;;;;;-143.99;100.00;64180.81;6110837;28;20310;-69
2023/05/08 06:28:17;;;;;;;3.67;3.20;;;;;;;-143.99;100.00;64180.81;6125801;28;20231;-69
2023/05/08 06:31:38;;;;;;;2.30;2.20;;;;;;;-143.99;100.00;64180.81;6130799;28;20226;-69
2023/05/08 06:34:59;;;;;;;3.60;3.30;;;;;;;-143.99;100.00;64180.81;6134119;28;20243;-69
2023/05/08 06:38:21;;;;;;;3.97;3.63;;;;;;;-143.99;100.00;64180.81;6122323;28;20613;-69
2023/05/08 06:41:43;;;;;;;4.83;3.50;;;;;;;-143.99;100.00;64180.81;6128329;28;20230;-70
2023/05/08 06:45:05;;;;;;;4.10;3.70;;;;;;;-143.99;100.00;64180.81;6138218;28;20226;-69
2023/05/08 06:48:27;;;;;;;3.23;2.93;;;;;;;-143.99;100.00;64180.81;6133641;28;20223;-69
2023/05/08 06:51:48;;;;;;;2.00;1.90;;;;;;;-143.99;100.00;64180.81;6138508;28;20317;-69
2023/05/08 06:55:11;;;;;;;4.73;3.43;;;;;;;-143.99;100.00;64180.81;6139109;28;20250;-68
2023/05/08 06:58:32;;;;;;;3.27;3.00;;;;;;;-143.99;100.00;64180.81;6140970;28;20235;-68
2023/05/08 07:01:53;;;;;;;2.60;2.40;;;;;;;-143.99;100.00;64180.81;6134538;28;20596;-70
2023/05/08 07:05:13;;;;;;;3.63;3.33;;;;;;;-143.99;100.00;64180.81;6122834;28;20550;-72
2023/05/08 07:08:34;;;;;;;2.80;2.57;;;;;;;-143.99;100.00;64180.81;6141830;28;20231;-70
2023/05/08 07:11:57;;;;;;;4.23;3.50;;;;;;;-143.99;100.00;64180.81;6149081;28;20383;-69
2023/05/08 07:15:18;;;;;;;3.17;2.90;;;;;;;-143.99;100.00;64180.81;6117863;28;20266;-70
2023/05/08 07:18:39;;;;;;;3.13;2.93;;;;;;;-143.99;100.00;64180.81;6143313;28;20228;-68
2023/05/08 07:22:00;;;;;;;3.83;3.43;;;;;;;-143.99;100.00;64180.81;6135415;28;20235;-69
2023/05/08 07:25:20;;;;;;;3.87;3.57;;;;;;;-143.99;100.00;64180.81;6135823;28;20242;-68
2023/05/08 07:28:43;;;;;;;3.23;2.93;;;;;;;-143.99;100.00;64180.81;6141916;28;20235;-68
2023/05/08 07:32:07;;;;;;;4.17;3.77;;;;;;;-143.99;100.00;64180.81;6133824;28;20305;-72
2023/05/08 07:35:28;;;;;;;6.33;4.33;;;;;;;-143.99;100.00;64180.81;6130695;28;20504;-69
2023/05/08 07:38:49;;;;;;;3.67;3.37;;;;;;;-143.99;100.00;64180.81;6139755;28;20227;-69
2023/05/08 07:42:10;;;;;;;3.37;3.17;;;;;;;-143.99;100.00;64180.81;6135632;28;22159;-71
2023/05/08 07:45:33;;;;;;;5.70;3.57;;;;;;;-143.99;100.00;64180.81;6122325;28;20514;-68
2023/05/08 07:48:54;;;;;;;3.67;2.90;;;;;;;-143.99;100.00;64180.81;6127218;28;20235;-68
2023/05/08 07:52:15;;;;;;;3.73;3.43;;;;;;;-143.99;100.00;64180.81;6133990;28;20258;-68
2023/05/08 07:55:36;;;;;;;3.70;3.40;;;;;;;-143.99;100.00;64180.81;6119366;28;23142;-68
2023/05/08 07:58:57;;;;;;;4.33;3.50;;;;;;;-143.99;100.00;64180.81;6144299;28;20239;-69
2023/05/08 08:02:20;;;;;;;4.00;3.70;;;;;;;-143.99;100.00;64180.81;6130021;28;20337;-69
2023/05/08 08:05:41;;;;;;;4.90;4.20;;;;;;;-143.99;100.00;64180.81;6125347;28;20238;-69
2023/05/08 08:09:02;;;;;;;4.80;3.23;;;;;;;-143.99;100.00;64180.81;6143123;28;20315;-68
2023/05/08 08:12:23;;;;;;;2.83;2.63;;;;;;;-143.99;100.00;64180.81;6145065;28;20231;-69
2023/05/08 08:15:44;;;;;;;3.80;3.50;;;;;;;-143.99;100.00;64180.81;6129848;28;20313;-69
2023/05/08 08:19:06;;;;;;;4.47;3.43;;;;;;;-143.99;100.00;64180.81;6142536;28;20223;-69
2023/05/08 08:22:27;;;;;;;3.90;3.50;;;;;;;-143.99;100.00;64180.81;6137774;28;21011;-68
2023/05/08 08:25:48;;;;;;;3.60;3.10;;;;;;;-143.99;100.00;64180.81;6134103;28;20238;-68
2023/05/08 08:29:08;;;;;;;7.13;4.23;;;;;;;-143.99;100.00;64180.81;6147605;28;20255;-70
2023/05/08 08:32:29;;;;;;;3.77;2.77;;;;;;;-143.99;100.00;64180.81;6148098;28;20231;-69
2023/05/08 08:35:52;;;;;;;5.00;4.60;;;;;;;-143.99;100.00;64180.81;6127220;28;20242;-71
2023/05/08 08:39:13;;;;;;;4.17;3.47;;;;;;;-143.99;100.00;64180.81;6148347;28;20230;-69
2023/05/08 08:42:34;;;;;;;5.23;3.77;;;;;;;-143.99;100.00;64180.81;6139995;28;20239;-70
2023/05/08 08:45:54;;;;;;;4.93;3.67;;;;;;;-143.99;100.00;64180.81;6118116;28;20231;-72
2023/05/08 08:49:18;;;;;;;3.60;3.23;;;;;;;-143.99;100.00;64180.81;6140870;28;20231;-71
2023/05/08 08:52:46;;;;;;;3.70;3.40;;;;;;;-143.99;100.00;64180.81;6125448;28;20283;-71
2023/05/08 08:56:08;;;;;;;3.70;3.40;;;;;;;-143.99;100.00;64180.81;6126567;28;20896;-70
2023/05/08 08:59:30;;;;;;;4.03;3.70;;;;;;;-143.99;100.00;64180.81;6140342;28;20235;-71
2023/05/08 09:02:51;;;;;;;3.50;3.30;;;;;;;-143.99;100.00;64180.81;6131752;28;20980;-71
2023/05/08 09:06:13;;;;;;;3.97;3.67;;;;;;;-143.99;100.00;64180.81;6133338;28;20235;-71
2023/05/08 09:09:40;;;;;;;3.70;3.37;;;;;;;-143.99;100.00;64180.81;6142818;28;20673;-70
2023/05/08 09:13:01;;;;;;;4.60;4.07;;;;;;;-143.99;100.00;64180.81;6134092;28;20223;-71
2023/05/08 09:16:23;;;;;;;4.30;3.90;;;;;;;-143.99;100.00;64180.81;6132809;28;20261;-71
2023/05/08 09:19:43;;;;;;;4.40;4.10;;;;;;;-143.99;100.00;64180.81;6141887;28;20235;-70
2023/05/08 09:23:05;;;;;;;4.17;3.77;;;;;;;-143.99;100.00;64180.81;6139676;28;20297;-71
2023/05/08 09:26:33;;;;;;;5.03;4.60;;;;;;;-143.99;100.00;64180.81;6137194;28;20718;-70
2023/05/08 09:30:02;;;;;;;5.17;4.30;;;;;;;-143.99;100.00;64180.81;6139337;28;20238;-70
2023/05/08 09:33:25;;;;;;;3.23;2.70;;;;;;;-143.99;100.00;64180.81;6138794;28;20222;-72
2023/05/08 09:36:46;;;;;;;3.80;3.43;;;;;;;-143.99;100.00;64180.81;6138563;28;20215;-72
2023/05/08 09:40:14;;;;;;;3.73;3.40;;;;;;;-143.99;100.00;64180.81;6137603;28;20238;-71
2023/05/08 09:43:37;;;;;;;3.70;3.40;;;;;;;-143.99;100.00;64180.81;6139539;28;20223;-71
2023/05/08 09:47:11;;;;;;;3.80;3.50;;;;;;;-143.99;100.00;64180.81;6125115;28;20239;-71
2023/05/08 09:50:32;;;;;;;4.07;3.77;;;;;;;-143.99;100.00;64180.81;6131979;28;20247;-71
2023/05/08 09:53:54;;;;;;;4.13;3.50;;;;;;;-143.99;100.00;64180.81;6148994;28;20227;-71
2023/05/08 09:57:15;;;;;;;3.50;3.20;;;;;;;-143.99;100.00;64180.81;6143242;28;20663;-71
2023/05/08 10:00:39;;;;;;;4.77;3.33;;;;;;;-143.99;100.00;64180.81;6131461;28;23076;-70
2023/05/08 10:04:00;;;;;;;2.60;2.40;;;;;;;-143.99;100.00;64180.81;6142945;28;20254;-72
2023/05/08 10:07:28;;;;;;;2.10;1.90;;;;;;;-143.99;100.00;64180.81;6134655;28;20261;-71
2023/05/08 10:10:49;;;;;;;2.93;2.50;;;;;;;-143.99;100.00;64180.81;6126111;28;20222;-71
2023/05/08 10:14:10;;;;;;;3.43;3.13;;;;;;;-143.99;100.00;64180.81;6147886;28;20235;-71
2023/05/08 10:17:41;;;;;;;2.50;2.30;;;;;;;-143.99;100.00;64180.81;6141961;28;20238;-70
2023/05/08 10:21:06;;;;;;;2.70;2.50;;;;;;;-143.99;100.00;64180.81;6130236;28;20227;-72
2023/05/08 10:24:31;;;;;;;4.13;3.80;;;;;;;-143.99;100.00;64180.81;6131282;28;20250;-70
2023/05/08 10:27:59;;;;;;;3.23;3.00;;;;;;;-143.99;100.00;64180.81;6124852;28;20545;-70
2023/05/08 10:31:22;;;;;;;3.97;2.77;;;;;;;-143.99;100.00;64180.81;6115264;28;20247;-69
2023/05/08 10:34:49;;;;;;;3.07;2.87;;;;;;;-143.99;100.00;64180.81;6139522;28;20673;-69
2023/05/08 10:38:11;;;;;;;4.40;3.20;;;;;;;-143.99;100.00;64180.81;6143008;28;20251;-69
2023/05/08 10:41:32;;;;;;;3.57;3.20;;;;;;;-143.99;100.00;64180.81;6129323;28;20238;-70
2023/05/08 10:44:54;;;;;;;4.07;2.27;;;;;;;-143.99;100.00;64180.81;6131873;28;20273;-68
2023/05/08 10:48:24;;;;;;;2.97;2.67;;;;;;;-143.99;100.00;64180.81;6121572;28;20509;-69
2023/05/08 10:51:56;;;;;;;7.40;3.33;;;;;;;-143.99;100.00;64180.81;6128750;28;20229;-69
2023/05/08 10:55:24;;;;;;;2.67;2.47;;;;;;;-143.99;100.00;64180.81;6126479;28;20849;-69
2023/05/08 10:58:45;;;;;;;1.70;1.60;;;;;;;-143.99;100.00;64180.81;6136337;28;20251;-69
2023/05/08 11:02:07;;;;;;;1.87;1.77;;;;;;;-143.99;100.00;64180.81;6121936;28;20235;-68
2023/05/08 11:05:28;;;;;;;2.77;2.50;;;;;;;-143.99;100.00;64180.81;6111000;28;20566;-71
2023/05/08 11:08:53;;;;;;;2.90;2.70;;;;;;;-143.99;100.00;64180.81;6137886;28;20231;-67
2023/05/08 11:12:22;;;;;;;4.90;2.73;;;;;;;-143.99;100.00;64180.81;6136874;28;20680;-68
2023/05/08 11:15:50;;;;;;;2.30;2.20;;;;;;;-143.99;100.00;64180.81;6131257;28;20257;-68
2023/05/08 11:19:18;;;;;;;3.37;3.07;;;;;;;-143.99;100.00;64180.81;6135773;28;20230;-69
2023/05/08 11:22:47;;;;;;;3.28;2.97;;;;;;;-143.99;100.00;64180.81;6132689;28;20230;-70
2023/05/08 11:26:15;;;;;;;1.93;1.83;;;;;;;-143.99;100.00;64180.81;6130231;28;20238;-68
2023/05/08 11:29:36;;;;;;;3.63;3.33;;;;;;;-143.99;100.00;64180.81;6143496;28;20414;-69
2023/05/08 11:32:58;;;;;;;3.87;2.90;;;;;;;-143.99;100.00;64180.81;6143856;28;20329;-69
2023/05/08 11:36:21;;;;;;;3.45;2.42;;;;;;;-143.99;100.00;64180.81;6136057;28;20235;-69
2023/05/08 11:39:42;;;;;;;3.92;2.17;;;;;;;-143.99;100.00;64180.81;6136635;28;20235;-68
2023/05/08 11:43:19;;;;;;;2.00;1.90;;;;;;;-143.99;100.00;64180.81;6120539;28;20227;-68
2023/05/08 11:46:49;;;;;;;3.63;1.85;;;;;;;-143.99;100.00;64180.81;6134048;28;20242;-71
2023/05/08 11:50:11;;;;;;;1.67;1.58;;;;;;;-143.99;100.00;64180.81;6133663;28;21017;-68
2023/05/08 11:53:33;;;;;;;2.38;1.42;;;;;;;-143.99;100.00;64180.81;6137179;28;20609;-71
2023/05/08 11:56:58;;;;;;;1.92;1.83;;;;;;;-143.99;100.00;64180.81;6094618;28;20653;-70
2023/05/08 12:00:22;;;;;;;1.70;1.60;;;;;;;-143.99;100.00;64180.81;6118548;28;20510;-65
2023/05/08 12:03:43;;;;;;;2.05;1.52;;;;;;;-143.99;100.00;64180.81;6136912;28;20227;-64
2023/05/08 12:07:05;;;;;;;1.77;1.40;;;;;;;-143.99;100.00;64180.81;6144309;28;20238;-66
2023/05/08 12:10:25;;;;;;;2.10;1.95;;;;;;;-143.99;100.00;64180.81;6120596;28;21071;-64
2023/05/08 12:13:50;;;;;;;1.75;1.58;;;;;;;-143.99;100.00;64180.81;6114264;28;20236;-64
2023/05/08 12:17:16;;;;;;;1.13;1.10;;;;;;;-143.99;100.00;64180.81;6132513;28;20237;-64
2023/05/08 12:20:37;;;;;;;1.58;1.27;;;;;;;-143.99;100.00;64180.81;6130320;28;20231;-65
2023/05/08 12:23:58;;;;;;;1.73;1.63;;;;;;;-143.99;100.00;64180.81;6138833;28;20241;-66
2023/05/08 12:27:19;;;;;;;2.22;1.20;;;;;;;-143.99;100.00;64180.81;6132762;28;20329;-66
2023/05/08 12:30:42;;;;;;;7.43;1.67;;;;;;;-143.99;100.00;64180.81;6124782;28;20238;-64
2023/05/08 12:34:05;;;;;;;2.00;1.35;;;;;;;-143.99;100.00;64180.81;6117713;28;20243;-64
2023/05/08 12:37:27;;;;;;;1.70;1.60;;;;;;;-143.99;100.00;64180.81;6138319;28;20235;-66
2023/05/08 12:40:51;;;;;;;1.80;1.70;;;;;;;-143.99;100.00;64180.81;6133859;28;20230;-67
2023/05/08 12:44:17;;;;;;;1.40;1.30;;;;;;;-143.99;100.00;64180.81;6142167;28;20250;-67
2023/05/08 12:47:38;;;;;;;1.40;1.30;;;;;;;-143.99;100.00;64180.81;6130494;28;20287;-66
2023/05/08 12:51:05;;;;;;;1.42;1.30;;;;;;;-143.99;100.00;64180.81;6117570;28;20235;-66
2023/05/08 12:54:32;;;;;;;1.30;1.20;;;;;;;-143.99;100.00;64180.81;6115925;28;20254;-66
2023/05/08 13:01:08;;;;;;;1.38;1.27;;;;;;;;;;6277437;27;21007;-63
2023/05/08 13:04:29;;;;;;;2.63;1.70;;;;;;;;;;6275216;27;20251;-63
2023/05/08 13:07:50;;;;;;;2.22;1.80;;;;;;;;;;6288698;28;20223;-65
2023/05/08 13:11:10;;;;;;;4.50;2.17;;;;;;;;;;6249223;28;20230;-65
2023/05/08 13:14:31;;;;;;;2.08;1.90;;;;;;;;;;6267030;28;20231;-65
2023/05/08 13:17:53;;;;;;;1.30;1.30;;;;;;;;;;6203972;28;72239;-64
2023/05/08 13:21:13;;;;;;;1.25;1.15;;;;;;;;;;6229605;28;20251;-64
2023/05/08 13:24:34;;;;;;;1.63;1.52;;;;;;;;;;6255896;28;20315;-65
2023/05/08 13:27:54;;;;;;;1.75;1.65;;;;;;;;;;6258854;28;20241;-64
2023/05/08 13:31:15;;;;;;;1.75;1.65;;;;;;;;;;6191807;28;20946;-65
2023/05/08 13:34:37;;;;;;;1.90;1.40;;;;;;;;;;6205066;28;20229;-64
2023/05/08 13:37:57;;;;;;;2.95;1.45;;;;;;;;;;6230212;28;20232;-66
2023/05/08 13:41:18;;;;;;;2.35;1.20;;;;;;;;;;6219492;28;20240;-64
2023/05/08 13:44:39;;;;;;;1.58;1.33;;;;;;;;;;6199132;28;20237;-65
2023/05/08 13:47:59;;;;;;;2.30;2.15;;;;;;;;;;6218302;28;20252;-64
2023/05/08 13:51:21;;;;;;;2.28;2.08;;;;;;;;;;6204073;28;20240;-64
2023/05/08 13:54:44;;;;;;;3.28;1.85;;;;;;;;;;6232768;28;20559;-64
2023/05/08 13:58:05;;;;;;;1.65;1.38;;;;;;;;;;6177258;28;20259;-64
2023/05/08 14:01:26;;;;;;;3.15;1.05;;;;;;;;;;6200944;28;20256;-65
2023/05/08 14:04:47;;;;;;;1.80;1.70;;;;;;;;;;6187355;28;20257;-63
2023/05/08 14:08:09;;;;;;;1.88;1.77;;;;;;;;;;6183370;28;20325;-63
2023/05/08 14:11:30;;;;;;;1.65;1.20;;;;;;;;;;6168941;28;20236;-66
2023/05/08 14:14:50;;;;;;;1.45;1.35;;;;;;;;;;6172902;28;20237;-67
2023/05/08 14:18:11;;;;;;;1.40;1.30;;;;;;;;;;6163843;28;20265;-66
2023/05/08 14:21:31;;;;;;;1.83;1.55;;;;;;;;;;6161070;28;20298;-67
2023/05/08 14:24:53;;;;;;;2.15;1.88;;;;;;;;;;6178388;28;20238;-69
2023/05/08 14:28:13;;;;;;;1.95;1.50;;;;;;;;;;6174975;28;20690;-69
2023/05/08 14:31:34;;;;;;;2.40;1.25;;;;;;;;;;6181024;28;20542;-66
2023/05/08 14:34:55;;;;;;;1.98;1.10;;;;;;;;;;6199955;28;20313;-67
2023/05/08 14:38:15;;;;;;;2.45;1.58;;;;;;;;;;6170859;28;20319;-68
2023/05/08 14:41:38;;;;;;;1.42;1.33;;;;;;;;;;6167925;28;20647;-68
2023/05/08 14:44:59;;;;;;;3.40;2.00;;;;;;;;;;6161578;28;20254;-68
2023/05/08 14:48:19;;;;;;;1.40;1.30;;;;;;;;;;6169383;28;20234;-68
2023/05/08 14:51:40;;;;;;;1.70;1.60;;;;;;;;;;6173673;28;20232;-68
2023/05/08 14:55:00;;;;;;;4.25;2.58;;;;;;;;;;6169073;28;20604;-68
2023/05/08 14:58:22;;;;;;;2.03;1.85;;;;;;;;;;6156516;28;20851;-68
2023/05/08 15:01:42;;;;;;;2.05;1.85;;;;;;;;;;6181916;28;20328;-68
2023/05/08 15:05:03;;;;;;;2.65;1.73;;;;;;;;;;6195794;28;20495;-68
2023/05/08 15:08:24;;;;;;;1.80;1.70;;;;;;;;;;6196115;28;20232;-68
2023/05/08 15:11:44;;;;;;;4.65;4.25;;;;;;;;;;6190679;28;20233;-68
2023/05/08 15:15:07;;;;;;;1.92;1.80;;;;;;;;;;6209918;28;20225;-66
2023/05/08 15:18:28;;;;;;;2.78;2.00;;;;;;;;;;6182827;28;20233;-67
2023/05/08 15:21:48;;;;;;;1.25;1.15;;;;;;;;;;6207151;28;20248;-67
2023/05/08 15:25:09;;;;;;;1.23;1.15;;;;;;;;;;6203093;28;20622;-70
2023/05/08 15:28:30;;;;;;;1.67;1.58;;;;;;;;;;6205423;28;20245;-69
2023/05/08 15:31:52;;;;;;;5.15;1.77;;;;;;;;;;6199656;28;20638;-69
2023/05/08 15:35:12;;;;;;;2.72;1.85;;;;;;;;;;6205200;28;20245;-69
2023/05/08 15:38:33;;;;;;;1.63;1.52;;;;;;;;;;6204091;28;20308;-68
2023/05/08 15:41:56;;;;;;;3.10;2.90;;;;;;;;;;6215324;28;20260;-70
2023/05/08 15:45:17;;;;;;;1.05;0.90;;;;;;;;;;6194438;28;20233;-68
2023/05/08 15:48:42;;;;;;;1.42;1.33;;;;;;;;;;6207556;28;20236;-69
2023/05/08 15:52:02;;;;;;;1.02;0.98;;;;;;;;;;6207233;28;20233;-68
2023/05/08 15:55:23;;;;;;;1.70;1.10;;;;;;;;;;6192326;28;20238;-66
2023/05/08 15:58:43;;;;;;;1.77;0.93;;;;;;;;;;6222277;28;20236;-68
2023/05/08 16:02:04;;;;;;;1.30;1.27;;;;;;;;;;6222372;28;20235;-69
2023/05/08 16:05:26;;;;;;;1.33;1.10;;;;;;;;;;6224312;28;20267;-68
2023/05/08 16:08:47;;;;;;;1.48;1.27;;;;;;;;;;6227100;28;20242;-68
2023/05/08 16:12:08;;;;;;;5.28;1.50;;;;;;;;;;6202086;28;20240;-68